createdAt,value
2019-01-18T00:01:13.955Z,0.12
2019-01-18T00:02:22.023Z,0.08
2019-01-18T00:03:24.988Z,0.01
2019-01-18T00:04:27.890Z,-0.03
2019-01-18T00:05:30.799Z,-0.02
2019-01-18T00:06:33.766Z,-0.01
2019-01-18T00:07:36.896Z,-0.02
2019-01-18T00:08:39.805Z,-0.02
2019-01-18T00:09:42.715Z,-0.02
2019-01-18T00:10:45.644Z,-0.02
2019-01-18T00:11:48.998Z,0.04
2019-01-18T00:12:51.858Z,0.06
2019-01-18T00:13:55.025Z,0.06
2019-01-18T00:15:00.986Z,0.03
2019-01-18T00:16:03.940Z,0.06
2019-01-18T00:17:07.263Z,0.08
2019-01-18T00:18:10.136Z,0.08
2019-01-18T00:19:13.047Z,0.08
2019-01-18T00:20:16.402Z,0.07
2019-01-18T00:21:19.294Z,0.10
2019-01-18T00:22:22.194Z,0.09
2019-01-18T00:23:25.074Z,0.10
2019-01-18T00:24:27.922Z,0.07
2019-01-18T00:25:30.890Z,0.06
2019-01-18T00:26:34.041Z,0.09
2019-01-18T00:27:36.923Z,0.06
2019-01-18T00:28:41.765Z,0.13
2019-01-18T00:29:44.676Z,0.06
2019-01-18T00:30:47.703Z,0.14
2019-01-18T00:31:50.631Z,0.14
2019-01-18T00:32:53.771Z,0.14
2019-01-18T00:33:56.632Z,0.14
2019-01-18T00:34:59.529Z,0.06
2019-01-18T00:36:02.534Z,0.10
2019-01-18T00:37:08.448Z,0.13
2019-01-18T00:38:11.761Z,0.13
2019-01-18T00:39:14.931Z,0.14
2019-01-18T00:40:17.822Z,0.09
2019-01-18T00:41:20.758Z,0.10
2019-01-18T00:42:23.821Z,0.06
2019-01-18T00:43:30.279Z,0.11
2019-01-18T00:44:33.651Z,0.10
2019-01-18T00:45:37.308Z,0.10
2019-01-18T00:46:41.274Z,0.14
2019-01-18T00:47:44.818Z,0.09
2019-01-18T00:48:47.838Z,0.11
2019-01-18T00:49:50.702Z,0.11
2019-01-18T00:50:53.616Z,0.10
2019-01-18T00:51:57.021Z,0.15
2019-01-18T00:53:00.027Z,0.18
2019-01-18T00:54:04.470Z,0.16
2019-01-18T00:55:07.784Z,0.16
2019-01-18T00:56:10.649Z,0.16
2019-01-18T00:57:13.510Z,0.14
2019-01-18T00:58:19.227Z,0.15
2019-01-18T00:59:22.241Z,0.15
2019-01-18T01:00:25.230Z,0.15
2019-01-18T01:01:28.125Z,0.25
2019-01-18T01:02:31.007Z,0.25
2019-01-18T01:03:37.040Z,0.17
2019-01-18T01:04:40.305Z,0.19
2019-01-18T01:05:43.272Z,0.23
2019-01-18T01:06:48.424Z,0.23
2019-01-18T01:07:51.343Z,0.22
2019-01-18T01:08:54.308Z,0.19
2019-01-18T01:09:57.227Z,0.21
2019-01-18T01:11:00.496Z,0.22
2019-01-18T01:12:03.524Z,0.18
2019-01-18T01:13:06.415Z,0.18
2019-01-18T01:14:09.319Z,0.21
2019-01-18T01:15:13.246Z,0.24
2019-01-18T01:16:16.771Z,0.24
2019-01-18T01:17:20.039Z,0.24
2019-01-18T01:18:22.900Z,0.20
2019-01-18T01:19:26.216Z,0.16
2019-01-18T01:20:29.127Z,0.19
2019-01-18T01:21:32.089Z,0.22
2019-01-18T01:22:34.992Z,0.21
2019-01-18T01:23:38.160Z,0.18
2019-01-18T01:24:41.097Z,0.18
2019-01-18T01:25:44.046Z,0.18
2019-01-18T01:26:47.000Z,0.20
2019-01-18T01:27:54.849Z,0.14
2019-01-18T01:28:57.824Z,0.16
2019-01-18T01:30:15.323Z,0.20
2019-01-18T01:31:21.347Z,0.19
2019-01-18T01:32:24.860Z,0.19
2019-01-18T01:33:28.208Z,0.27
2019-01-18T01:34:32.488Z,0.25
2019-01-18T01:35:39.288Z,0.25
2019-01-18T01:36:42.194Z,0.25
2019-01-18T01:37:45.189Z,0.21
2019-01-18T01:38:48.211Z,0.21
2019-01-18T01:39:51.115Z,0.20
2019-01-18T01:40:54.026Z,0.19
2019-01-18T01:41:57.416Z,0.19
2019-01-18T01:43:00.340Z,0.23
2019-01-18T01:44:03.546Z,0.19
2019-01-18T01:45:06.467Z,0.22
2019-01-18T01:46:09.365Z,0.22
2019-01-18T01:47:12.478Z,0.16
2019-01-18T01:48:15.716Z,0.20
2019-01-18T01:49:18.799Z,0.20
2019-01-18T01:50:21.688Z,0.23
2019-01-18T01:51:24.564Z,0.23
2019-01-18T01:52:27.519Z,0.20
2019-01-18T01:53:30.576Z,0.16
2019-01-18T01:54:34.561Z,0.16
2019-01-18T01:55:38.039Z,0.16
2019-01-18T01:56:40.970Z,0.22
2019-01-18T01:57:43.944Z,0.18
2019-01-18T01:58:46.873Z,0.18
2019-01-18T01:59:50.319Z,0.13
2019-01-18T02:00:53.485Z,0.17
2019-01-18T02:01:56.475Z,0.12
2019-01-18T02:02:59.502Z,0.19
2019-01-18T02:04:02.380Z,0.19
2019-01-18T02:05:05.361Z,0.19
2019-01-18T02:06:08.521Z,0.14
2019-01-18T02:07:11.668Z,0.14
2019-01-18T02:08:14.749Z,0.16
2019-01-18T02:09:17.851Z,0.15
2019-01-18T02:10:21.155Z,0.15
2019-01-18T02:11:24.288Z,0.18
2019-01-18T02:12:27.161Z,0.19
2019-01-18T02:13:30.370Z,0.20
2019-01-18T02:14:33.244Z,0.19
2019-01-18T02:15:36.102Z,0.19
2019-01-18T02:16:39.080Z,0.15
2019-01-18T02:17:41.937Z,0.15
2019-01-18T02:18:44.844Z,0.15
2019-01-18T02:19:48.025Z,0.15
2019-01-18T02:20:50.896Z,0.19
2019-01-18T02:21:53.888Z,0.20
2019-01-18T02:22:56.867Z,0.17
2019-01-18T02:23:59.776Z,0.23
2019-01-18T02:25:03.229Z,0.22
2019-01-18T02:26:06.629Z,0.25
2019-01-18T02:27:09.512Z,0.17
2019-01-18T02:28:12.407Z,0.17
2019-01-18T02:29:15.304Z,0.19
2019-01-18T02:30:18.566Z,0.19
2019-01-18T02:31:21.556Z,0.21
2019-01-18T02:32:24.739Z,0.20
2019-01-18T02:33:27.653Z,0.21
2019-01-18T02:34:30.518Z,0.21
2019-01-18T02:35:33.505Z,0.23
2019-01-18T02:36:36.963Z,0.22
2019-01-18T02:37:40.010Z,0.24
2019-01-18T02:38:43.527Z,0.24
2019-01-18T02:39:46.436Z,0.23
2019-01-18T02:40:49.416Z,0.21
2019-01-18T02:41:52.744Z,0.19
2019-01-18T02:42:55.664Z,0.21
2019-01-18T02:43:58.626Z,0.16
2019-01-18T02:45:03.476Z,0.17
2019-01-18T02:46:06.440Z,0.16
2019-01-18T02:47:09.714Z,0.14
2019-01-18T02:48:12.600Z,0.16
2019-01-18T02:49:15.505Z,0.18
2019-01-18T02:50:18.380Z,0.16
2019-01-18T02:51:21.644Z,0.16
2019-01-18T02:52:24.558Z,0.07
2019-01-18T02:53:27.455Z,0.12
2019-01-18T02:54:30.390Z,0.13
2019-01-18T02:55:33.682Z,0.16
2019-01-18T02:56:36.744Z,0.12
2019-01-18T02:57:40.394Z,0.20
2019-01-18T02:58:43.772Z,0.15
2019-01-18T02:59:46.678Z,0.16
2019-01-18T03:00:49.586Z,0.21
2019-01-18T03:01:52.556Z,0.19
2019-01-18T03:02:56.610Z,0.16
2019-01-18T03:03:59.809Z,0.18
2019-01-18T03:05:02.921Z,0.18
2019-01-18T03:06:05.794Z,0.19
2019-01-18T03:07:08.819Z,0.09
2019-01-18T03:08:11.791Z,0.12
2019-01-18T03:09:14.691Z,0.12
2019-01-18T03:10:17.938Z,0.14
2019-01-18T03:11:20.816Z,0.14
2019-01-18T03:12:23.834Z,0.13
2019-01-18T03:13:26.786Z,0.10
2019-01-18T03:14:29.682Z,0.08
2019-01-18T03:15:32.588Z,0.06
2019-01-18T03:16:35.799Z,0.06
2019-01-18T03:17:38.699Z,0.04
2019-01-18T03:18:41.673Z,0.08
2019-01-18T03:19:44.559Z,0.06
2019-01-18T03:20:47.551Z,0.06
2019-01-18T03:21:50.945Z,0.06
2019-01-18T03:22:54.151Z,0.07
2019-01-18T03:23:57.178Z,0.07
2019-01-18T03:25:00.180Z,0.08
2019-01-18T03:26:03.235Z,0.08
2019-01-18T03:27:06.132Z,0.06
2019-01-18T03:28:09.083Z,0.08
2019-01-18T03:29:12.349Z,0.08
2019-01-18T03:30:18.750Z,0.07
2019-01-18T03:31:20.409Z,0.08
2019-01-18T03:32:23.352Z,0.06
2019-01-18T03:33:26.338Z,0.07
2019-01-18T03:34:29.653Z,0.07
2019-01-18T03:35:32.849Z,0.03
2019-01-18T03:36:35.839Z,0.04
2019-01-18T03:37:38.720Z,0.03
2019-01-18T03:38:41.708Z,0.03
2019-01-18T03:39:44.630Z,0.05
2019-01-18T03:40:47.561Z,0.09
2019-01-18T03:41:50.753Z,0.11
2019-01-18T03:42:53.665Z,0.11
2019-01-18T03:43:56.626Z,0.11
2019-01-18T03:45:00.020Z,0.10
2019-01-18T03:46:02.920Z,0.08
2019-01-18T03:47:05.829Z,0.07
2019-01-18T03:48:09.162Z,0.06
2019-01-18T03:49:12.508Z,0.11
2019-01-18T03:50:17.093Z,0.11
2019-01-18T03:51:19.982Z,0.10
2019-01-18T03:52:22.977Z,0.08
2019-01-18T03:53:26.041Z,0.08
2019-01-18T03:54:29.430Z,0.04
2019-01-18T03:55:32.657Z,0.04
2019-01-18T03:56:35.552Z,0.05
2019-01-18T03:57:38.467Z,0.08
2019-01-18T03:58:41.330Z,0.02
2019-01-18T03:59:44.248Z,0.02
2019-01-18T04:00:49.180Z,0.08
2019-01-18T04:01:52.164Z,0.07
2019-01-18T04:02:56.653Z,0.07
2019-01-18T04:03:59.688Z,-0.04
2019-01-18T04:05:02.583Z,0.04
2019-01-18T04:06:05.578Z,0.03
2019-01-18T04:07:08.772Z,0.03
2019-01-18T04:08:11.697Z,-0.01
2019-01-18T04:09:14.597Z,0.00
2019-01-18T04:10:17.491Z,-0.01
2019-01-18T04:11:20.471Z,-0.03
2019-01-18T04:12:23.391Z,0.01
2019-01-18T04:13:26.572Z,-0.03
2019-01-18T04:14:29.474Z,0.00
2019-01-18T04:15:32.578Z,0.04
2019-01-18T04:16:35.688Z,0.08
2019-01-18T04:17:38.553Z,0.09
2019-01-18T04:18:41.446Z,0.08
2019-01-18T04:19:47.225Z,0.07
2019-01-18T04:20:50.322Z,0.03
2019-01-18T04:21:53.317Z,0.04
2019-01-18T04:22:56.200Z,0.02
2019-01-18T04:23:59.086Z,0.04
2019-01-18T04:25:02.028Z,-0.03
2019-01-18T04:26:05.230Z,-0.03
2019-01-18T04:27:08.218Z,0.03
2019-01-18T04:28:11.138Z,0.03
2019-01-18T04:29:14.058Z,0.05
2019-01-18T04:30:17.042Z,0.03
2019-01-18T04:31:19.941Z,-0.02
2019-01-18T04:32:23.381Z,-0.05
2019-01-18T04:33:26.306Z,0.04
2019-01-18T04:34:29.220Z,0.04
2019-01-18T04:35:32.703Z,0.04
2019-01-18T04:36:35.773Z,0.05
2019-01-18T04:37:38.864Z,0.02
2019-01-18T04:38:42.181Z,0.02
2019-01-18T04:39:45.423Z,0.01
2019-01-18T04:40:48.341Z,-0.02
2019-01-18T04:41:51.243Z,-0.03
2019-01-18T04:42:54.138Z,-0.01
2019-01-18T04:43:57.118Z,-0.02
2019-01-18T04:45:00.352Z,-0.02
2019-01-18T04:46:04.528Z,-0.02
2019-01-18T04:47:07.536Z,0.00
2019-01-18T04:48:10.552Z,0.00
2019-01-18T04:49:13.569Z,0.03
2019-01-18T04:50:16.462Z,0.05
2019-01-18T04:51:19.857Z,0.05
2019-01-18T04:52:22.799Z,0.06
2019-01-18T04:53:25.755Z,-0.02
2019-01-18T04:54:28.756Z,0.03
2019-01-18T04:55:31.701Z,0.06
2019-01-18T04:56:36.865Z,0.08
2019-01-18T04:57:42.658Z,0.08
2019-01-18T04:58:45.576Z,0.08
2019-01-18T04:59:48.559Z,0.08
2019-01-18T05:00:51.485Z,0.10
2019-01-18T05:01:54.464Z,0.11
2019-01-18T05:03:00.167Z,0.13
2019-01-18T05:04:03.578Z,0.13
2019-01-18T05:05:06.594Z,0.06
2019-01-18T05:06:09.494Z,0.10
2019-01-18T05:07:13.374Z,0.10
2019-01-18T05:08:16.704Z,0.07
2019-01-18T05:09:19.708Z,0.08
2019-01-18T05:10:23.095Z,0.09
2019-01-18T05:11:26.447Z,0.09
2019-01-18T05:12:29.346Z,0.09
2019-01-18T05:13:32.624Z,0.08
2019-01-18T05:14:36.956Z,0.10
2019-01-18T05:15:41.262Z,0.08
2019-01-18T05:16:44.179Z,0.08
2019-01-18T05:17:47.136Z,0.12
2019-01-18T05:18:50.323Z,0.12
2019-01-18T05:19:53.210Z,0.12
2019-01-18T05:20:56.194Z,0.12
2019-01-18T05:21:59.075Z,0.12
2019-01-18T05:23:02.409Z,0.11
2019-01-18T05:24:05.417Z,0.11
2019-01-18T05:25:08.315Z,0.06
2019-01-18T05:26:11.641Z,0.05
2019-01-18T05:27:14.890Z,0.00
2019-01-18T05:28:19.630Z,0.03
2019-01-18T05:29:23.659Z,0.04
2019-01-18T05:30:26.745Z,0.04
2019-01-18T05:31:30.212Z,0.01
2019-01-18T05:32:33.439Z,-0.02
2019-01-18T05:33:36.496Z,-0.02
2019-01-18T05:34:39.483Z,-0.03
2019-01-18T05:35:43.146Z,-0.11
2019-01-18T05:36:46.104Z,-0.14
2019-01-18T05:37:49.037Z,-0.16
2019-01-18T05:38:54.768Z,-0.17
2019-01-18T05:39:57.730Z,-0.17
2019-01-18T05:41:00.649Z,-0.21
2019-01-18T05:42:04.026Z,-0.23
2019-01-18T05:43:08.629Z,-0.27
2019-01-18T05:44:14.538Z,-0.27
2019-01-18T05:45:21.213Z,-0.27
2019-01-18T05:46:27.649Z,-0.29
2019-01-18T05:47:34.136Z,-0.28
2019-01-18T05:48:37.163Z,-0.32
2019-01-18T05:49:40.151Z,-0.32
2019-01-18T05:50:43.122Z,-0.34
2019-01-18T05:51:46.041Z,-0.36
2019-01-18T05:52:49.025Z,-0.37
2019-01-18T05:53:53.808Z,-0.47
2019-01-18T05:54:59.291Z,-0.50
2019-01-18T05:56:02.621Z,-0.50
2019-01-18T05:57:05.541Z,-0.56
2019-01-18T05:58:08.612Z,-0.54
2019-01-18T05:59:11.518Z,-0.53
2019-01-18T06:00:15.342Z,-0.53
2019-01-18T06:01:19.173Z,-0.53
2019-01-18T06:02:22.103Z,-0.50
2019-01-18T06:03:25.222Z,-0.56
2019-01-18T06:04:28.265Z,-0.53
2019-01-18T06:05:32.142Z,-0.53
2019-01-18T06:06:35.054Z,-0.54
2019-01-18T06:07:39.596Z,-0.57
2019-01-18T06:08:42.594Z,-0.57
2019-01-18T06:09:45.490Z,-0.60
2019-01-18T06:10:48.585Z,-0.57
2019-01-18T06:11:51.605Z,-0.57
2019-01-18T06:12:54.713Z,-0.54
2019-01-18T06:13:57.951Z,-0.57
2019-01-18T06:15:00.972Z,-0.65
2019-01-18T06:16:03.958Z,-0.70
2019-01-18T06:17:09.492Z,-0.70
2019-01-18T06:18:12.833Z,-0.72
2019-01-18T06:19:15.811Z,-0.73
2019-01-18T06:20:19.177Z,-0.73
2019-01-18T06:21:22.203Z,-0.76
2019-01-18T06:22:25.283Z,-0.78
2019-01-18T06:23:28.356Z,-0.79
2019-01-18T06:24:31.440Z,-0.78
2019-01-18T06:25:34.355Z,-0.79
2019-01-18T06:26:38.429Z,-0.79
2019-01-18T06:27:42.447Z,-0.79
2019-01-18T06:28:45.339Z,-0.83
2019-01-18T06:29:48.301Z,-0.86
2019-01-18T06:43:48.362Z,-1.09
2019-01-18T06:44:51.430Z,-1.11
2019-01-18T06:45:54.739Z,-1.12
2019-01-18T06:46:59.843Z,-1.15
2019-01-18T06:48:05.178Z,-1.18
2019-01-18T06:49:09.302Z,-1.18
2019-01-18T06:50:16.999Z,-1.19
2019-01-18T06:51:20.391Z,-1.19
2019-01-18T06:52:23.608Z,-1.18
2019-01-18T06:53:26.815Z,-1.18
2019-01-18T06:54:31.717Z,-1.18
2019-01-18T06:55:35.241Z,-1.19
2019-01-18T06:56:38.216Z,-1.17
2019-01-18T06:57:41.286Z,-1.17
2019-01-18T06:58:44.919Z,-1.26
2019-01-18T06:59:47.811Z,-1.16
2019-01-18T07:00:51.191Z,-1.17
2019-01-18T07:01:57.196Z,-1.21
2019-01-18T07:03:01.301Z,-1.21
2019-01-18T07:04:04.684Z,-1.19
2019-01-18T07:05:07.648Z,-1.19
2019-01-18T07:06:11.031Z,-1.20
2019-01-18T07:07:14.086Z,-1.18
2019-01-18T07:08:17.675Z,-1.22
2019-01-18T07:09:24.092Z,-1.22
2019-01-18T07:10:27.152Z,-1.26
2019-01-18T07:11:30.078Z,-1.26
2019-01-18T07:12:32.957Z,-1.29
2019-01-18T07:13:36.425Z,-1.29
2019-01-18T07:14:41.244Z,-1.27
2019-01-18T07:15:44.252Z,-1.31
2019-01-18T07:16:47.155Z,-1.25
2019-01-18T07:17:50.134Z,-1.25
2019-01-18T07:18:53.095Z,-1.25
2019-01-18T07:19:55.988Z,-1.21
2019-01-18T07:20:59.410Z,-1.21
2019-01-18T07:22:02.321Z,-1.22
2019-01-18T07:23:05.245Z,-1.22
2019-01-18T07:24:08.230Z,-1.29
2019-01-18T07:25:11.378Z,-1.33
2019-01-18T07:26:14.357Z,-1.33
2019-01-18T07:27:17.551Z,-1.35
2019-01-18T07:28:20.519Z,-1.37
2019-01-18T07:29:24.747Z,-1.38
2019-01-18T07:30:27.659Z,-1.39
2019-01-18T07:31:30.696Z,-1.39
2019-01-18T07:32:33.597Z,-1.44
2019-01-18T07:33:43.752Z,-1.43
2019-01-18T07:34:46.681Z,-1.43
2019-01-18T07:35:49.643Z,-1.43
2019-01-18T07:36:52.573Z,-1.43
2019-01-18T07:37:55.495Z,-1.42
2019-01-18T07:39:00.569Z,-1.38
2019-01-18T07:40:03.622Z,-1.34
2019-01-18T07:41:07.103Z,-1.36
2019-01-18T07:42:13.881Z,-1.35
2019-01-18T07:43:16.900Z,-1.32
2019-01-18T07:44:22.585Z,-1.31
2019-01-18T07:45:25.496Z,-1.32
2019-01-18T07:46:33.839Z,-1.31
2019-01-18T07:47:37.223Z,-1.27
2019-01-18T07:48:40.298Z,-1.24
2019-01-18T07:49:43.809Z,-1.25
2019-01-18T07:50:46.803Z,-1.22
2019-01-18T07:51:49.971Z,-1.19
2019-01-18T07:52:56.425Z,-1.17
2019-01-18T07:53:59.394Z,-1.16
2019-01-18T07:55:08.628Z,-1.12
2019-01-18T07:56:13.938Z,-1.16
2019-01-18T07:57:16.926Z,-1.19
2019-01-18T07:58:21.632Z,-1.16
2019-01-18T07:59:29.277Z,-1.03
2019-01-18T08:00:30.113Z,-1.03
2019-01-18T08:01:33.105Z,-0.94
2019-01-18T08:02:37.342Z,-0.71
2019-01-18T08:03:41.170Z,-0.66
2019-01-18T08:04:44.079Z,-0.66
2019-01-18T08:05:49.363Z,-0.49
2019-01-18T08:06:52.356Z,-0.38
2019-01-18T08:07:55.333Z,-0.38
2019-01-18T08:08:58.276Z,-0.36
2019-01-18T08:10:01.213Z,-0.28
2019-01-18T08:11:04.183Z,-0.10
2019-01-18T08:12:07.466Z,0.01
2019-01-18T08:13:13.870Z,0.17
2019-01-18T08:14:16.858Z,0.17
2019-01-18T08:15:19.782Z,0.35
2019-01-18T08:16:25.845Z,0.35
2019-01-18T08:17:30.628Z,0.40
2019-01-18T08:18:34.432Z,0.40
2019-01-18T08:19:40.989Z,0.33
2019-01-18T08:20:45.071Z,0.44
2019-01-18T08:21:50.798Z,0.56
2019-01-18T08:22:52.965Z,0.72
2019-01-18T08:23:56.440Z,0.72
2019-01-18T08:24:59.815Z,0.86
2019-01-18T08:26:03.237Z,0.85
2019-01-18T08:27:06.191Z,0.96
2019-01-18T08:28:12.320Z,0.96
2019-01-18T08:29:26.805Z,0.92
2019-01-18T08:30:31.997Z,0.94
2019-01-18T08:31:34.606Z,0.99
2019-01-18T08:32:39.175Z,0.99
2019-01-18T08:33:42.138Z,1.02
2019-01-18T08:34:45.038Z,0.82
2019-01-18T08:35:49.563Z,0.82
2019-01-18T08:36:55.918Z,0.73
2019-01-18T08:37:58.889Z,0.37
2019-01-18T08:39:01.812Z,0.37
2019-01-18T08:40:08.598Z,-0.18
2019-01-18T08:41:11.516Z,-0.28
2019-01-18T08:42:16.851Z,-0.28
2019-01-18T08:43:20.289Z,-0.22
2019-01-18T08:44:23.730Z,-0.22
2019-01-18T08:45:26.661Z,-0.30
2019-01-18T08:46:29.776Z,-0.30
2019-01-18T08:47:32.768Z,-0.21
2019-01-18T08:48:35.684Z,-0.16
2019-01-18T08:49:39.213Z,-0.20
2019-01-18T08:50:43.231Z,-0.20
2019-01-18T08:51:48.090Z,-0.16
2019-01-18T08:52:50.837Z,-0.03
2019-01-18T08:53:53.717Z,-0.02
2019-01-18T08:55:03.165Z,0.17
2019-01-18T08:56:10.312Z,0.40
2019-01-18T08:57:13.458Z,0.40
2019-01-18T08:58:16.512Z,0.98
2019-01-18T08:59:19.569Z,1.17
2019-01-18T09:00:25.268Z,1.39
2019-01-18T09:01:28.568Z,1.42
2019-01-18T09:02:34.263Z,1.50
2019-01-18T09:03:37.935Z,1.50
2019-01-18T09:04:40.900Z,1.20
2019-01-18T09:05:43.890Z,0.87
2019-01-18T09:06:47.070Z,0.62
2019-01-18T09:07:52.468Z,0.55
2019-01-18T09:09:02.296Z,0.41
2019-01-18T09:10:00.582Z,0.17
2019-01-18T09:11:03.527Z,0.28
2019-01-18T09:12:07.690Z,0.25
2019-01-18T09:13:14.085Z,0.28
2019-01-18T09:14:19.560Z,0.29
2019-01-18T09:15:24.834Z,0.29
2019-01-18T09:16:28.359Z,0.25
2019-01-18T09:17:33.325Z,0.22
2019-01-18T09:18:36.698Z,0.22
2019-01-18T09:19:39.706Z,-0.10
2019-01-18T09:20:43.991Z,-0.37
2019-01-18T09:21:47.740Z,-0.31
2019-01-18T09:22:53.222Z,-0.14
2019-01-18T09:23:58.701Z,-0.03
2019-01-18T09:25:05.949Z,-0.03
2019-01-18T09:26:09.494Z,0.02
2019-01-18T09:27:23.127Z,0.02
2019-01-18T09:28:26.430Z,0.35
2019-01-18T09:29:29.337Z,0.35
2019-01-18T09:30:35.696Z,0.27
2019-01-18T09:31:42.415Z,0.14
2019-01-18T09:32:43.386Z,0.04
2019-01-18T09:33:46.334Z,0.04
2019-01-18T09:34:49.266Z,-0.03
2019-01-18T09:35:52.798Z,-0.12
2019-01-18T09:36:58.451Z,-0.12
2019-01-18T09:38:01.450Z,-0.22
2019-01-18T09:39:04.527Z,-0.27
2019-01-18T09:40:07.736Z,-0.27
2019-01-18T09:41:11.327Z,-0.34
2019-01-18T09:42:14.335Z,-0.30
2019-01-18T09:43:17.244Z,-0.33
2019-01-18T09:44:20.225Z,-0.43
2019-01-18T09:45:23.198Z,-0.51
2019-01-18T09:46:29.995Z,-0.52
2019-01-18T09:47:32.978Z,-0.43
2019-01-18T09:48:37.075Z,-0.46
2019-01-18T09:49:39.999Z,-0.46
2019-01-18T09:50:42.934Z,-0.42
2019-01-18T09:51:45.958Z,-0.42
2019-01-18T09:52:48.849Z,-0.43
2019-01-18T09:53:51.790Z,-0.56
2019-01-18T09:54:54.761Z,-0.60
2019-01-18T09:55:57.725Z,-0.60
2019-01-18T09:57:01.097Z,-0.61
2019-01-18T09:58:05.991Z,-0.58
2019-01-18T09:59:11.859Z,-0.44
2019-01-18T10:00:17.294Z,-0.44
2019-01-18T10:01:20.251Z,-0.04
2019-01-18T10:02:23.508Z,-140.42
2019-01-18T10:03:27.112Z,-140.42
2019-01-18T10:04:32.840Z,-140.42
2019-01-18T10:05:35.746Z,0.71
2019-01-18T10:06:38.674Z,0.71
2019-01-18T10:07:42.692Z,0.92
2019-01-18T10:08:47.264Z,0.42
2019-01-18T10:09:50.638Z,0.14
2019-01-18T10:10:56.555Z,0.14
2019-01-18T10:12:00.631Z,-0.32
2019-01-18T10:13:03.667Z,-0.64
2019-01-18T10:14:09.886Z,-0.75
2019-01-18T10:15:13.119Z,-0.65
2019-01-18T10:16:25.071Z,-0.53
2019-01-18T10:17:23.714Z,-0.76
2019-01-18T10:18:26.740Z,-0.45
2019-01-18T10:19:29.693Z,-0.45
2019-01-18T10:20:32.715Z,-0.63
2019-01-18T10:21:40.183Z,-0.63
2019-01-18T10:22:44.694Z,-0.68
2019-01-18T10:23:48.902Z,-0.53
2019-01-18T10:24:51.829Z,-0.88
2019-01-18T10:25:54.792Z,-0.88
2019-01-18T10:26:58.612Z,-0.91
2019-01-18T10:28:04.844Z,-0.76
2019-01-18T10:29:08.330Z,-0.69
2019-01-18T10:30:11.236Z,-0.69
2019-01-18T10:31:17.169Z,-0.64
2019-01-18T10:32:22.593Z,-0.70
2019-01-18T10:33:27.212Z,-0.70
2019-01-18T10:34:35.043Z,-0.68
2019-01-18T10:35:39.089Z,-0.60
2019-01-18T10:36:42.085Z,-0.54
2019-01-18T10:37:46.954Z,-0.54
2019-01-18T10:38:52.403Z,-0.68
2019-01-18T10:39:57.379Z,-0.68
2019-01-18T10:41:00.342Z,-0.67
2019-01-18T10:42:12.305Z,-0.60
2019-01-18T10:43:16.089Z,-0.45
2019-01-18T10:44:24.427Z,-0.45
2019-01-18T10:45:27.503Z,-0.56
2019-01-18T10:46:32.324Z,-0.56
2019-01-18T10:47:36.923Z,-0.63
2019-01-18T10:48:39.907Z,-0.63
2019-01-18T10:49:45.438Z,-0.62
2019-01-18T10:50:48.354Z,-0.62
2019-01-18T10:51:51.331Z,-0.58
2019-01-18T10:52:54.242Z,-0.46
2019-01-18T10:53:57.168Z,-0.36
2019-01-18T10:55:03.461Z,-0.25
2019-01-18T10:56:09.025Z,-0.01
2019-01-18T10:57:12.018Z,0.09
2019-01-18T10:58:15.390Z,0.41
2019-01-18T10:59:23.890Z,0.89
2019-01-18T11:00:26.926Z,0.89
2019-01-18T11:01:29.848Z,0.99
2019-01-18T11:02:32.762Z,0.99
2019-01-18T11:03:37.377Z,0.90
2019-01-18T11:04:40.664Z,0.88
2019-01-18T11:05:43.713Z,1.02
2019-01-18T11:06:46.744Z,0.81
2019-01-18T11:07:52.533Z,0.80
2019-01-18T11:08:55.577Z,0.72
2019-01-18T11:10:04.831Z,0.72
2019-01-18T11:11:07.759Z,0.37
2019-01-18T11:12:10.697Z,0.52
2019-01-18T11:13:16.539Z,0.66
2019-01-18T11:14:19.618Z,0.77
2019-01-18T11:15:28.309Z,0.77
2019-01-18T11:16:31.716Z,0.84
2019-01-18T11:17:34.639Z,0.82
2019-01-18T11:18:37.664Z,0.85
2019-01-18T11:19:40.630Z,0.85
2019-01-18T11:20:43.542Z,0.74
2019-01-18T11:21:46.586Z,0.74
2019-01-18T11:22:52.859Z,0.60
2019-01-18T11:23:55.896Z,0.46
2019-01-18T11:24:58.964Z,0.55
2019-01-18T11:26:01.870Z,0.55
2019-01-18T11:27:05.053Z,0.77
2019-01-18T11:28:08.973Z,0.77
2019-01-18T11:29:20.072Z,0.70
2019-01-18T11:42:54.532Z,0.82
2019-01-18T11:43:57.647Z,0.72
2019-01-18T11:45:07.713Z,0.59
2019-01-18T11:46:10.616Z,0.66
2019-01-18T11:47:16.473Z,0.40
2019-01-18T11:48:22.795Z,0.58
2019-01-18T11:49:26.159Z,0.96
2019-01-18T11:50:29.223Z,1.82
2019-01-18T11:51:35.031Z,1.82
2019-01-18T11:52:40.889Z,2.93
2019-01-18T11:53:43.913Z,2.24
2019-01-18T11:54:50.053Z,2.24
2019-01-18T11:55:56.231Z,2.24
2019-01-18T11:56:59.257Z,2.53
2019-01-18T11:58:04.852Z,2.79
2019-01-18T11:59:10.433Z,2.67
2019-01-18T12:00:14.012Z,2.67
2019-01-18T12:01:17.423Z,2.43
2019-01-18T12:02:22.227Z,1.65
2019-01-18T12:03:25.363Z,1.50
2019-01-18T12:04:28.402Z,1.64
2019-01-18T12:05:31.297Z,1.55
2019-01-18T12:06:35.271Z,1.77
2019-01-18T12:07:38.621Z,1.38
2019-01-18T12:08:42.029Z,1.50
2019-01-18T12:09:45.932Z,1.79
2019-01-18T12:10:48.975Z,1.79
2019-01-18T12:11:54.426Z,1.98
2019-01-18T12:12:56.737Z,1.58
2019-01-18T12:14:00.001Z,1.38
2019-01-18T12:15:04.043Z,1.38
2019-01-18T12:16:08.795Z,2.50
2019-01-18T12:17:14.208Z,2.50
2019-01-18T12:18:17.143Z,3.95
2019-01-18T12:19:20.079Z,3.95
2019-01-18T12:20:23.629Z,4.97
2019-01-18T12:21:26.701Z,5.54
2019-01-18T12:22:29.724Z,6.00
2019-01-18T12:23:32.822Z,6.22
2019-01-18T12:24:35.845Z,6.16
2019-01-18T12:25:38.764Z,6.26
2019-01-18T12:26:41.676Z,6.68
2019-01-18T12:27:45.054Z,6.50
2019-01-18T12:28:48.057Z,5.90
2019-01-18T12:29:54.258Z,5.90
2019-01-18T12:31:02.858Z,4.42
2019-01-18T12:32:07.468Z,3.93
2019-01-18T12:33:10.551Z,3.01
2019-01-18T12:34:13.436Z,3.01
2019-01-18T12:35:16.347Z,3.15
2019-01-18T12:36:19.352Z,3.09
2019-01-18T12:37:25.167Z,3.09
2019-01-18T12:38:31.277Z,2.94
2019-01-18T12:39:34.763Z,2.85
2019-01-18T12:40:37.818Z,2.91
2019-01-18T12:41:41.687Z,2.97
2019-01-18T12:42:47.082Z,2.86
2019-01-18T12:43:51.778Z,2.73
2019-01-18T12:44:54.711Z,2.64
2019-01-18T12:46:00.196Z,2.64
2019-01-18T12:47:03.442Z,2.29
2019-01-18T12:48:06.465Z,2.02
2019-01-18T12:49:09.802Z,1.71
2019-01-18T12:50:12.921Z,1.71
2019-01-18T12:51:17.315Z,1.29
2019-01-18T12:52:20.297Z,1.02
2019-01-18T12:53:23.227Z,0.74
2019-01-18T12:54:26.451Z,0.27
2019-01-18T12:55:29.735Z,0.11
2019-01-18T12:56:33.209Z,0.19
2019-01-18T12:57:38.365Z,0.76
2019-01-18T12:58:41.283Z,1.74
2019-01-18T12:59:45.029Z,1.74
2019-01-18T13:00:49.008Z,2.56
2019-01-18T13:01:53.409Z,2.67
2019-01-18T13:02:58.665Z,2.67
2019-01-18T13:04:18.814Z,2.92
2019-01-18T13:05:23.237Z,3.29
2019-01-18T13:06:27.803Z,4.37
2019-01-18T13:07:30.801Z,4.97
2019-01-18T13:08:36.211Z,5.32
2019-01-18T13:09:41.618Z,5.48
2019-01-18T13:10:58.223Z,5.59
2019-01-18T13:12:01.310Z,5.64
2019-01-18T13:13:06.721Z,5.94
2019-01-18T13:14:09.667Z,5.57
2019-01-18T13:15:12.745Z,5.57
2019-01-18T13:16:15.865Z,4.83
2019-01-18T13:17:18.844Z,5.20
2019-01-18T13:18:22.027Z,5.34
2019-01-18T13:19:25.380Z,5.72
2019-01-18T13:20:30.154Z,5.77
2019-01-18T13:21:35.424Z,5.43
2019-01-18T13:22:38.766Z,5.43
2019-01-18T13:23:41.684Z,5.45
2019-01-18T13:24:44.962Z,5.72
2019-01-18T13:27:11.807Z,5.81
2019-01-18T13:28:17.165Z,5.63
2019-01-18T13:29:22.292Z,5.35
2019-01-18T13:30:27.392Z,5.04
2019-01-18T13:31:30.373Z,5.21
2019-01-18T13:32:33.700Z,5.68
2019-01-18T13:33:39.411Z,5.75
2019-01-18T13:34:42.441Z,5.73
2019-01-18T13:35:45.517Z,5.94
2019-01-18T13:36:48.884Z,5.75
2019-01-18T13:37:51.805Z,5.56
2019-01-18T13:38:56.593Z,5.53
2019-01-18T13:39:59.600Z,5.80
2019-01-18T13:41:05.916Z,5.80
2019-01-18T13:42:12.695Z,5.42
2019-01-18T13:43:15.854Z,5.42
2019-01-18T13:44:22.153Z,5.30
2019-01-18T13:45:25.629Z,3.75
2019-01-18T13:46:31.685Z,4.56
2019-01-18T13:47:34.676Z,5.36
2019-01-18T13:48:37.955Z,5.65
2019-01-18T13:49:40.968Z,5.70
2019-01-18T13:50:44.099Z,5.77
2019-01-18T13:51:47.816Z,5.82
2019-01-18T13:52:52.078Z,5.95
2019-01-18T13:53:57.915Z,6.04
2019-01-18T13:55:00.980Z,6.10
2019-01-18T13:56:04.270Z,6.00
2019-01-18T13:57:12.224Z,6.00
2019-01-18T13:58:14.065Z,6.10
2019-01-18T13:59:17.447Z,5.79
2019-01-18T14:00:23.443Z,5.61
2019-01-18T14:01:29.850Z,5.61
2019-01-18T14:02:35.564Z,5.50
2019-01-18T14:03:45.348Z,5.40
2019-01-18T14:04:48.382Z,5.40
2019-01-18T14:05:51.628Z,5.28
2019-01-18T14:06:54.534Z,5.39
2019-01-18T14:07:59.927Z,5.64
2019-01-18T14:09:02.947Z,5.48
2019-01-18T14:10:08.830Z,5.06
2019-01-18T14:11:11.154Z,4.70
2019-01-18T14:12:14.317Z,4.94
2019-01-18T14:13:17.494Z,4.94
2019-01-18T14:14:20.887Z,4.79
2019-01-18T14:15:24.467Z,4.88
2019-01-18T14:16:27.451Z,4.88
2019-01-18T14:17:32.684Z,5.02
2019-01-18T14:18:35.635Z,5.12
2019-01-18T14:19:38.980Z,4.89
2019-01-18T14:20:42.122Z,4.98
2019-01-18T14:21:51.366Z,4.66
2019-01-18T14:22:54.381Z,4.21
2019-01-18T14:23:57.960Z,4.23
2019-01-18T14:25:01.238Z,4.48
2019-01-18T14:26:04.305Z,4.53
2019-01-18T14:27:07.338Z,4.57